sensor_id;sensor_type;location;lat;lon;timestamp;pressure;altitude;pressure_sealevel;temperature;humidity
21520;BME280;10921;53.614;9.882;2023-01-30T00:01:05;100754.41;;;6.07;87.27
21520;BME280;10921;53.614;9.882;2023-01-30T00:03:32;100727.53;;;6.00;87.10
21520;BME280;10921;53.614;9.882;2023-01-30T00:05:59;100744.16;;;6.03;87.15
21520;BME280;10921;53.614;9.882;2023-01-30T00:08:26;100756.34;;;6.16;86.88
21520;BME280;10921;53.614;9.882;2023-01-30T00:10:52;100719.59;;;6.12;87.31
21520;BME280;10921;53.614;9.882;2023-01-30T00:13:19;100729.97;;;6.15;87.37
21520;BME280;10921;53.614;9.882;2023-01-30T00:15:46;100731.03;;;6.12;87.44
21520;BME280;10921;53.614;9.882;2023-01-30T00:18:13;100740.56;;;6.15;87.61
21520;BME280;10921;53.614;9.882;2023-01-30T00:20:39;100732.16;;;6.21;87.53
21520;BME280;10921;53.614;9.882;2023-01-30T00:23:06;100696.16;;;6.18;87.42
21520;BME280;10921;53.614;9.882;2023-01-30T00:25:32;100703.66;;;6.24;87.46
21520;BME280;10921;53.614;9.882;2023-01-30T00:28:00;100701.84;;;6.25;87.71
21520;BME280;10921;53.614;9.882;2023-01-30T00:30:27;100696.66;;;6.23;87.65
21520;BME280;10921;53.614;9.882;2023-01-30T00:32:55;100691.25;;;6.25;87.70
21520;BME280;10921;53.614;9.882;2023-01-30T00:35:22;100672.81;;;6.23;87.76
21520;BME280;10921;53.614;9.882;2023-01-30T00:37:55;100661.94;;;6.26;87.90
21520;BME280;10921;53.614;9.882;2023-01-30T00:40:21;100651.22;;;6.28;87.83
21520;BME280;10921;53.614;9.882;2023-01-30T00:42:48;100648.34;;;6.31;87.82
21520;BME280;10921;53.614;9.882;2023-01-30T00:45:33;100651.00;;;6.31;87.86
21520;BME280;10921;53.614;9.882;2023-01-30T00:48:18;100651.72;;;6.33;87.75
21520;BME280;10921;53.614;9.882;2023-01-30T00:50:45;100640.16;;;6.34;87.87
21520;BME280;10921;53.614;9.882;2023-01-30T00:53:13;100614.88;;;6.30;87.43
21520;BME280;10921;53.614;9.882;2023-01-30T00:55:40;100625.72;;;6.38;87.77
21520;BME280;10921;53.614;9.882;2023-01-30T00:58:23;100620.78;;;6.45;88.35
21520;BME280;10921;53.614;9.882;2023-01-30T01:00:51;100610.56;;;6.40;87.55
21520;BME280;10921;53.614;9.882;2023-01-30T01:03:18;100604.63;;;6.37;87.93
21520;BME280;10921;53.614;9.882;2023-01-30T01:05:45;100605.47;;;6.48;87.65
21520;BME280;10921;53.614;9.882;2023-01-30T01:08:11;100615.13;;;6.49;87.64
21520;BME280;10921;53.614;9.882;2023-01-30T01:10:38;100602.34;;;6.54;87.59
21520;BME280;10921;53.614;9.882;2023-01-30T01:13:04;100592.72;;;6.53;87.81
21520;BME280;10921;53.614;9.882;2023-01-30T01:15:32;100577.53;;;6.44;87.78
21520;BME280;10921;53.614;9.882;2023-01-30T01:17:59;100588.25;;;6.54;88.04
21520;BME280;10921;53.614;9.882;2023-01-30T01:20:25;100574.59;;;6.58;87.80
21520;BME280;10921;53.614;9.882;2023-01-30T01:22:53;100575.81;;;6.65;87.86
21520;BME280;10921;53.614;9.882;2023-01-30T01:25:21;100573.78;;;6.69;87.52
21520;BME280;10921;53.614;9.882;2023-01-30T01:27:49;100566.78;;;6.68;87.87
21520;BME280;10921;53.614;9.882;2023-01-30T01:30:16;100544.25;;;6.62;87.84
21520;BME280;10921;53.614;9.882;2023-01-30T01:32:43;100548.66;;;6.73;87.97
21520;BME280;10921;53.614;9.882;2023-01-30T01:35:10;100554.81;;;6.74;87.91
21520;BME280;10921;53.614;9.882;2023-01-30T01:37:36;100547.84;;;6.72;87.96
21520;BME280;10921;53.614;9.882;2023-01-30T01:40:04;100536.25;;;6.74;88.42
21520;BME280;10921;53.614;9.882;2023-01-30T01:42:50;100546.50;;;6.78;88.35
21520;BME280;10921;53.614;9.882;2023-01-30T01:45:23;100536.38;;;6.83;88.30
21520;BME280;10921;53.614;9.882;2023-01-30T01:50:48;100511.03;;;6.90;90.33
21520;BME280;10921;53.614;9.882;2023-01-30T01:53:20;100493.09;;;6.83;89.88
21520;BME280;10921;53.614;9.882;2023-01-30T01:55:51;100496.47;;;6.85;90.18
21520;BME280;10921;53.614;9.882;2023-01-30T01:58:22;100510.41;;;6.98;90.48
21520;BME280;10921;53.614;9.882;2023-01-30T02:00:51;100481.97;;;6.89;89.86
21520;BME280;10921;53.614;9.882;2023-01-30T02:03:21;100500.28;;;6.92;90.50
21520;BME280;10921;53.614;9.882;2023-01-30T02:05:50;100510.19;;;6.90;90.88
21520;BME280;10921;53.614;9.882;2023-01-30T02:08:25;100504.13;;;6.99;90.94
21520;BME280;10921;53.614;9.882;2023-01-30T02:11:16;100498.69;;;7.00;91.56
21520;BME280;10921;53.614;9.882;2023-01-30T02:13:45;100491.13;;;6.96;91.35
21520;BME280;10921;53.614;9.882;2023-01-30T02:16:12;100472.78;;;6.93;91.30
21520;BME280;10921;53.614;9.882;2023-01-30T02:18:41;100474.81;;;7.00;91.10
21520;BME280;10921;53.614;9.882;2023-01-30T02:24:50;100463.81;;;7.05;91.25
21520;BME280;10921;53.614;9.882;2023-01-30T02:27:19;100467.19;;;7.07;91.74
21520;BME280;10921;53.614;9.882;2023-01-30T02:35:05;100458.00;;;7.11;91.69
21520;BME280;10921;53.614;9.882;2023-01-30T02:40:39;100457.88;;;7.13;92.20
21520;BME280;10921;53.614;9.882;2023-01-30T02:43:16;100435.81;;;7.12;92.82
21520;BME280;10921;53.614;9.882;2023-01-30T02:48:29;100439.47;;;7.21;92.84
21520;BME280;10921;53.614;9.882;2023-01-30T02:51:04;100418.84;;;7.24;93.26
21520;BME280;10921;53.614;9.882;2023-01-30T02:53:33;100438.00;;;7.28;92.97
21520;BME280;10921;53.614;9.882;2023-01-30T02:56:01;100419.19;;;7.31;93.11
21520;BME280;10921;53.614;9.882;2023-01-30T02:58:33;100417.06;;;7.34;93.17
21520;BME280;10921;53.614;9.882;2023-01-30T03:06:54;100411.41;;;7.49;94.04
21520;BME280;10921;53.614;9.882;2023-01-30T03:09:39;100415.50;;;7.53;93.81
21520;BME280;10921;53.614;9.882;2023-01-30T03:12:16;100409.81;;;7.57;93.01
21520;BME280;10921;53.614;9.882;2023-01-30T03:14:57;100401.97;;;7.56;93.63
21520;BME280;10921;53.614;9.882;2023-01-30T03:17:26;100388.44;;;7.59;92.72
21520;BME280;10921;53.614;9.882;2023-01-30T03:19:54;100376.72;;;7.61;92.79
21520;BME280;10921;53.614;9.882;2023-01-30T03:22:21;100391.50;;;7.64;93.02
21520;BME280;10921;53.614;9.882;2023-01-30T03:24:49;100385.22;;;7.65;93.38
21520;BME280;10921;53.614;9.882;2023-01-30T03:27:18;100382.31;;;7.68;93.14
21520;BME280;10921;53.614;9.882;2023-01-30T03:29:44;100377.00;;;7.68;93.42
21520;BME280;10921;53.614;9.882;2023-01-30T03:32:11;100375.91;;;7.70;93.07
21520;BME280;10921;53.614;9.882;2023-01-30T03:34:37;100383.03;;;7.70;93.12
21520;BME280;10921;53.614;9.882;2023-01-30T03:37:04;100372.84;;;7.75;92.87
21520;BME280;10921;53.614;9.882;2023-01-30T03:39:31;100364.88;;;7.75;93.00
21520;BME280;10921;53.614;9.882;2023-01-30T03:41:58;100368.66;;;7.82;92.98
21520;BME280;10921;53.614;9.882;2023-01-30T03:44:24;100353.69;;;7.81;92.93
21520;BME280;10921;53.614;9.882;2023-01-30T03:46:51;100341.84;;;7.85;92.89
21520;BME280;10921;53.614;9.882;2023-01-30T03:49:17;100349.78;;;7.85;93.06
21520;BME280;10921;53.614;9.882;2023-01-30T03:51:44;100338.91;;;7.79;93.29
21520;BME280;10921;53.614;9.882;2023-01-30T03:54:11;100352.31;;;7.87;93.13
21520;BME280;10921;53.614;9.882;2023-01-30T03:56:37;100323.09;;;7.87;93.59
21520;BME280;10921;53.614;9.882;2023-01-30T03:59:04;100367.16;;;7.89;93.35
21520;BME280;10921;53.614;9.882;2023-01-30T04:01:30;100360.16;;;7.88;93.75
21520;BME280;10921;53.614;9.882;2023-01-30T04:04:00;100355.69;;;7.89;93.63
21520;BME280;10921;53.614;9.882;2023-01-30T04:06:26;100324.91;;;7.86;93.35
21520;BME280;10921;53.614;9.882;2023-01-30T04:08:53;100336.97;;;8.00;93.52
21520;BME280;10921;53.614;9.882;2023-01-30T04:11:20;100328.28;;;7.98;93.80
21520;BME280;10921;53.614;9.882;2023-01-30T04:13:46;100345.66;;;8.02;93.41
21520;BME280;10921;53.614;9.882;2023-01-30T04:16:22;100371.53;;;8.09;93.87
21520;BME280;10921;53.614;9.882;2023-01-30T04:18:49;100394.31;;;8.12;93.02
21520;BME280;10921;53.614;9.882;2023-01-30T04:21:16;100373.19;;;8.10;93.12
21520;BME280;10921;53.614;9.882;2023-01-30T04:23:43;100361.06;;;8.08;92.45
21520;BME280;10921;53.614;9.882;2023-01-30T04:26:10;100359.91;;;8.10;92.34
21520;BME280;10921;53.614;9.882;2023-01-30T04:28:37;100366.22;;;8.09;91.85
21520;BME280;10921;53.614;9.882;2023-01-30T04:31:04;100350.41;;;8.08;91.52
21520;BME280;10921;53.614;9.882;2023-01-30T04:33:31;100354.19;;;8.05;91.41
21520;BME280;10921;53.614;9.882;2023-01-30T04:36:02;100361.44;;;8.03;91.40
21520;BME280;10921;53.614;9.882;2023-01-30T04:38:30;100362.28;;;8.04;91.27
21520;BME280;10921;53.614;9.882;2023-01-30T04:40:58;100365.75;;;7.95;91.41
21520;BME280;10921;53.614;9.882;2023-01-30T04:43:26;100372.22;;;8.02;91.32
21520;BME280;10921;53.614;9.882;2023-01-30T04:45:53;100356.41;;;8.00;91.22
21520;BME280;10921;53.614;9.882;2023-01-30T04:48:21;100361.72;;;8.00;91.71
21520;BME280;10921;53.614;9.882;2023-01-30T04:50:50;100361.72;;;8.00;91.73
21520;BME280;10921;53.614;9.882;2023-01-30T04:53:17;100331.91;;;7.87;91.81
21520;BME280;10921;53.614;9.882;2023-01-30T04:55:46;100341.56;;;7.98;92.16
21520;BME280;10921;53.614;9.882;2023-01-30T04:58:12;100345.50;;;8.03;92.01
21520;BME280;10921;53.614;9.882;2023-01-30T05:00:39;100364.81;;;8.05;91.80
21520;BME280;10921;53.614;9.882;2023-01-30T05:03:05;100347.31;;;8.03;91.61
21520;BME280;10921;53.614;9.882;2023-01-30T05:05:32;100343.56;;;8.05;91.43
21520;BME280;10921;53.614;9.882;2023-01-30T05:07:59;100347.31;;;8.03;91.24
21520;BME280;10921;53.614;9.882;2023-01-30T05:10:27;100355.28;;;8.03;91.20
21520;BME280;10921;53.614;9.882;2023-01-30T05:12:53;100352.91;;;8.00;91.27
21520;BME280;10921;53.614;9.882;2023-01-30T05:15:20;100344.66;;;7.93;91.36
21520;BME280;10921;53.614;9.882;2023-01-30T05:17:46;100357.50;;;7.98;90.88
21520;BME280;10921;53.614;9.882;2023-01-30T05:20:13;100359.31;;;7.97;90.83
21520;BME280;10921;53.614;9.882;2023-01-30T05:22:39;100349.81;;;7.95;90.64
21520;BME280;10921;53.614;9.882;2023-01-30T05:25:06;100343.97;;;7.91;90.31
21520;BME280;10921;53.614;9.882;2023-01-30T05:27:33;100346.88;;;7.88;90.33
21520;BME280;10921;53.614;9.882;2023-01-30T05:29:59;100351.22;;;7.89;89.74
21520;BME280;10921;53.614;9.882;2023-01-30T05:32:26;100358.75;;;7.84;89.87
21520;BME280;10921;53.614;9.882;2023-01-30T05:34:55;100354.13;;;7.76;89.38
21520;BME280;10921;53.614;9.882;2023-01-30T05:37:22;100357.50;;;7.79;89.32
21520;BME280;10921;53.614;9.882;2023-01-30T05:39:49;100362.22;;;7.75;89.40
21520;BME280;10921;53.614;9.882;2023-01-30T05:42:16;100357.88;;;7.74;89.43
21520;BME280;10921;53.614;9.882;2023-01-30T05:44:42;100363.47;;;7.71;88.94
21520;BME280;10921;53.614;9.882;2023-01-30T05:47:09;100363.72;;;7.68;89.00
21520;BME280;10921;53.614;9.882;2023-01-30T05:49:35;100349.19;;;7.62;88.99
21520;BME280;10921;53.614;9.882;2023-01-30T05:52:02;100349.00;;;7.54;89.00
21520;BME280;10921;53.614;9.882;2023-01-30T05:54:28;100350.41;;;7.58;88.82
21520;BME280;10921;53.614;9.882;2023-01-30T05:56:55;100347.31;;;7.53;88.64
21520;BME280;10921;53.614;9.882;2023-01-30T05:59:21;100336.69;;;7.44;88.43
21520;BME280;10921;53.614;9.882;2023-01-30T06:01:48;100340.16;;;7.44;88.03
21520;BME280;10921;53.614;9.882;2023-01-30T06:04:14;100337.66;;;7.43;88.30
21520;BME280;10921;53.614;9.882;2023-01-30T06:06:41;100339.00;;;7.37;88.05
21520;BME280;10921;53.614;9.882;2023-01-30T06:09:09;100349.88;;;7.34;87.72
21520;BME280;10921;53.614;9.882;2023-01-30T06:11:36;100340.22;;;7.23;87.63
21520;BME280;10921;53.614;9.882;2023-01-30T06:14:02;100326.81;;;7.25;87.72
21520;BME280;10921;53.614;9.882;2023-01-30T06:16:28;100341.72;;;7.16;87.27
21520;BME280;10921;53.614;9.882;2023-01-30T06:18:55;100350.25;;;7.20;87.41
21520;BME280;10921;53.614;9.882;2023-01-30T06:21:21;100358.63;;;7.15;87.04
21520;BME280;10921;53.614;9.882;2023-01-30T06:23:48;100345.84;;;7.09;87.06
21520;BME280;10921;53.614;9.882;2023-01-30T06:26:15;100351.41;;;7.06;87.05
21520;BME280;10921;53.614;9.882;2023-01-30T06:28:41;100346.31;;;6.93;86.91
21520;BME280;10921;53.614;9.882;2023-01-30T06:31:08;100353.91;;;6.98;87.32
21520;BME280;10921;53.614;9.882;2023-01-30T06:33:34;100343.63;;;6.84;87.23
21520;BME280;10921;53.614;9.882;2023-01-30T06:36:01;100357.47;;;6.87;87.42
21520;BME280;10921;53.614;9.882;2023-01-30T06:38:27;100345.81;;;6.79;87.48
21520;BME280;10921;53.614;9.882;2023-01-30T06:40:54;100364.25;;;6.80;87.67
21520;BME280;10921;53.614;9.882;2023-01-30T06:43:20;100366.06;;;6.80;87.60
21520;BME280;10921;53.614;9.882;2023-01-30T06:45:47;100364.38;;;6.79;88.01
21520;BME280;10921;53.614;9.882;2023-01-30T06:48:13;100361.25;;;6.74;88.01
21520;BME280;10921;53.614;9.882;2023-01-30T06:50:40;100355.00;;;6.75;87.94
21520;BME280;10921;53.614;9.882;2023-01-30T06:53:07;100364.63;;;6.76;87.58
21520;BME280;10921;53.614;9.882;2023-01-30T06:55:34;100381.38;;;6.76;87.53
21520;BME280;10921;53.614;9.882;2023-01-30T06:58:04;100381.50;;;6.75;87.22
21520;BME280;10921;53.614;9.882;2023-01-30T07:00:32;100371.19;;;6.72;87.20
21520;BME280;10921;53.614;9.882;2023-01-30T07:02:59;100382.63;;;6.72;86.71
21520;BME280;10921;53.614;9.882;2023-01-30T07:05:26;100378.41;;;6.69;86.83
21520;BME280;10921;53.614;9.882;2023-01-30T07:07:54;100375.75;;;6.69;86.42
21520;BME280;10921;53.614;9.882;2023-01-30T07:10:20;100378.41;;;6.69;86.57
21520;BME280;10921;53.614;9.882;2023-01-30T07:12:47;100372.66;;;6.64;86.58
21520;BME280;10921;53.614;9.882;2023-01-30T07:15:13;100384.44;;;6.72;86.53
21520;BME280;10921;53.614;9.882;2023-01-30T07:17:40;100353.25;;;6.64;86.62
21520;BME280;10921;53.614;9.882;2023-01-30T07:20:09;100361.13;;;6.75;86.30
21520;BME280;10921;53.614;9.882;2023-01-30T07:22:35;100352.34;;;6.75;85.70
21520;BME280;10921;53.614;9.882;2023-01-30T07:25:02;100357.06;;;6.71;85.66
21520;BME280;10921;53.614;9.882;2023-01-30T07:27:28;100362.81;;;6.76;85.14
21520;BME280;10921;53.614;9.882;2023-01-30T07:29:55;100368.38;;;6.73;85.29
21520;BME280;10921;53.614;9.882;2023-01-30T07:32:21;100335.34;;;6.56;85.25
21520;BME280;10921;53.614;9.882;2023-01-30T07:34:48;100353.47;;;6.72;85.32
21520;BME280;10921;53.614;9.882;2023-01-30T07:37:14;100360.56;;;6.72;85.35
21520;BME280;10921;53.614;9.882;2023-01-30T07:39:41;100365.88;;;6.72;85.45
21520;BME280;10921;53.614;9.882;2023-01-30T07:42:08;100371.75;;;6.75;85.34
21520;BME280;10921;53.614;9.882;2023-01-30T07:44:34;100338.06;;;6.66;85.73
21520;BME280;10921;53.614;9.882;2023-01-30T07:47:00;100342.50;;;6.65;85.58
21520;BME280;10921;53.614;9.882;2023-01-30T07:49:27;100376.53;;;6.81;85.95
21520;BME280;10921;53.614;9.882;2023-01-30T07:51:54;100372.53;;;6.87;86.32
21520;BME280;10921;53.614;9.882;2023-01-30T07:54:20;100352.16;;;6.87;86.23
21520;BME280;10921;53.614;9.882;2023-01-30T07:56:47;100360.56;;;6.92;86.27
21520;BME280;10921;53.614;9.882;2023-01-30T07:59:13;100364.25;;;7.01;86.12
21520;BME280;10921;53.614;9.882;2023-01-30T08:01:40;100369.88;;;7.07;85.81
21520;BME280;10921;53.614;9.882;2023-01-30T08:04:06;100365.84;;;7.13;85.35
21520;BME280;10921;53.614;9.882;2023-01-30T08:06:33;100359.59;;;7.14;84.76
21520;BME280;10921;53.614;9.882;2023-01-30T08:09:05;100367.84;;;7.21;84.37
21520;BME280;10921;53.614;9.882;2023-01-30T08:11:32;100375.66;;;7.22;84.26
21520;BME280;10921;53.614;9.882;2023-01-30T08:13:59;100351.38;;;7.17;83.68
21520;BME280;10921;53.614;9.882;2023-01-30T08:16:25;100362.53;;;7.21;83.12
21520;BME280;10921;53.614;9.882;2023-01-30T08:18:52;100367.91;;;7.30;82.75
21520;BME280;10921;53.614;9.882;2023-01-30T08:21:18;100369.59;;;7.31;82.05
21520;BME280;10921;53.614;9.882;2023-01-30T08:23:45;100392.63;;;7.31;81.75
21520;BME280;10921;53.614;9.882;2023-01-30T08:26:11;100370.56;;;7.30;81.43
21520;BME280;10921;53.614;9.882;2023-01-30T08:28:38;100379.91;;;7.34;81.71
21520;BME280;10921;53.614;9.882;2023-01-30T08:31:10;100347.81;;;7.37;81.58
21520;BME280;10921;53.614;9.882;2023-01-30T08:33:37;100375.06;;;7.39;81.17
21520;BME280;10921;53.614;9.882;2023-01-30T08:36:04;100390.34;;;7.47;81.32
21520;BME280;10921;53.614;9.882;2023-01-30T08:38:31;100385.88;;;7.48;80.70
21520;BME280;10921;53.614;9.882;2023-01-30T08:40:57;100394.97;;;7.55;80.83
21520;BME280;10921;53.614;9.882;2023-01-30T08:43:26;100371.34;;;7.52;80.45
21520;BME280;10921;53.614;9.882;2023-01-30T08:45:53;100375.41;;;7.56;80.32
21520;BME280;10921;53.614;9.882;2023-01-30T08:48:19;100387.22;;;7.63;80.02
21520;BME280;10921;53.614;9.882;2023-01-30T08:50:46;100390.84;;;7.71;80.02
21520;BME280;10921;53.614;9.882;2023-01-30T08:53:12;100367.47;;;7.65;79.65
21520;BME280;10921;53.614;9.882;2023-01-30T08:55:39;100376.91;;;7.79;79.63
21520;BME280;10921;53.614;9.882;2023-01-30T08:58:05;100362.22;;;7.75;79.60
21520;BME280;10921;53.614;9.882;2023-01-30T09:00:32;100367.69;;;7.83;79.77
21520;BME280;10921;53.614;9.882;2023-01-30T09:02:58;100361.84;;;7.99;79.41
21520;BME280;10921;53.614;9.882;2023-01-30T09:05:25;100385.22;;;8.05;78.54
21520;BME280;10921;53.614;9.882;2023-01-30T09:07:52;100376.56;;;8.12;77.26
21520;BME280;10921;53.614;9.882;2023-01-30T09:10:18;100380.78;;;8.15;77.45
21520;BME280;10921;53.614;9.882;2023-01-30T09:12:45;100372.78;;;8.15;76.99
21520;BME280;10921;53.614;9.882;2023-01-30T09:15:12;100370.72;;;8.19;76.51
21520;BME280;10921;53.614;9.882;2023-01-30T09:17:38;100330.00;;;8.08;76.29
21520;BME280;10921;53.614;9.882;2023-01-30T09:20:07;100380.81;;;8.25;75.54
21520;BME280;10921;53.614;9.882;2023-01-30T09:22:34;100377.56;;;8.31;75.65
21520;BME280;10921;53.614;9.882;2023-01-30T09:25:00;100342.59;;;8.26;74.49
21520;BME280;10921;53.614;9.882;2023-01-30T09:27:27;100350.41;;;8.27;73.66
21520;BME280;10921;53.614;9.882;2023-01-30T09:29:53;100360.28;;;8.36;73.93
21520;BME280;10921;53.614;9.882;2023-01-30T09:32:20;100348.53;;;8.39;74.04
21520;BME280;10921;53.614;9.882;2023-01-30T09:34:46;100341.66;;;8.36;74.65
21520;BME280;10921;53.614;9.882;2023-01-30T09:37:13;100334.94;;;8.52;74.93
21520;BME280;10921;53.614;9.882;2023-01-30T09:39:39;100340.13;;;8.63;74.56
21520;BME280;10921;53.614;9.882;2023-01-30T09:42:19;100352.13;;;8.76;74.67
21520;BME280;10921;53.614;9.882;2023-01-30T09:47:56;100349.16;;;8.99;73.36
21520;BME280;10921;53.614;9.882;2023-01-30T09:56:10;100371.16;;;9.01;72.74
21520;BME280;10921;53.614;9.882;2023-01-30T09:58:56;100366.41;;;8.95;72.89
21520;BME280;10921;53.614;9.882;2023-01-30T10:01:29;100356.19;;;8.80;73.68
21520;BME280;10921;53.614;9.882;2023-01-30T10:04:08;100350.47;;;8.56;75.02
21520;BME280;10921;53.614;9.882;2023-01-30T10:06:46;100345.72;;;8.50;76.01
21520;BME280;10921;53.614;9.882;2023-01-30T10:12:05;100344.81;;;8.01;77.68
21520;BME280;10921;53.614;9.882;2023-01-30T10:14:46;100359.44;;;7.86;78.23
21520;BME280;10921;53.614;9.882;2023-01-30T10:17:42;100341.25;;;7.72;77.87
21520;BME280;10921;53.614;9.882;2023-01-30T10:20:29;100306.63;;;7.43;79.73
21520;BME280;10921;53.614;9.882;2023-01-30T10:28:05;100304.94;;;7.02;80.79
21520;BME280;10921;53.614;9.882;2023-01-30T10:30:35;100293.53;;;6.90;80.88
21520;BME280;10921;53.614;9.882;2023-01-30T10:33:23;100304.28;;;6.89;82.37
21520;BME280;10921;53.614;9.882;2023-01-30T10:36:15;100291.28;;;6.86;83.11
21520;BME280;10921;53.614;9.882;2023-01-30T10:38:46;100290.63;;;6.93;82.86
21520;BME280;10921;53.614;9.882;2023-01-30T10:41:30;100289.91;;;6.91;84.94
21520;BME280;10921;53.614;9.882;2023-01-30T10:44:02;100283.53;;;7.03;85.92
21520;BME280;10921;53.614;9.882;2023-01-30T10:49:54;100306.41;;;7.25;85.69
21520;BME280;10921;53.614;9.882;2023-01-30T10:55:54;100286.03;;;7.26;84.26
21520;BME280;10921;53.614;9.882;2023-01-30T10:58:32;100362.53;;;7.21;84.28
21520;BME280;10921;53.614;9.882;2023-01-30T11:03:50;100366.78;;;7.02;82.59
21520;BME280;10921;53.614;9.882;2023-01-30T11:06:22;100364.88;;;6.93;82.59
21520;BME280;10921;53.614;9.882;2023-01-30T11:08:50;100364.13;;;6.82;82.33
21520;BME280;10921;53.614;9.882;2023-01-30T11:11:34;100341.72;;;6.75;82.97
21520;BME280;10921;53.614;9.882;2023-01-30T11:14:08;100349.50;;;6.66;83.15
21520;BME280;10921;53.614;9.882;2023-01-30T11:16:52;100369.53;;;6.59;83.78
21520;BME280;10921;53.614;9.882;2023-01-30T11:19:23;100368.25;;;6.54;84.77
21520;BME280;10921;53.614;9.882;2023-01-30T11:21:51;100360.31;;;6.43;85.30
21520;BME280;10921;53.614;9.882;2023-01-30T11:24:22;100369.59;;;6.48;85.21
21520;BME280;10921;53.614;9.882;2023-01-30T11:26:49;100337.19;;;6.45;85.78
21520;BME280;10921;53.614;9.882;2023-01-30T11:29:29;100347.06;;;6.43;86.68
21520;BME280;10921;53.614;9.882;2023-01-30T11:32:02;100348.75;;;6.44;86.55
21520;BME280;10921;53.614;9.882;2023-01-30T11:34:29;100366.94;;;6.48;86.01
21520;BME280;10921;53.614;9.882;2023-01-30T11:37:21;100356.06;;;6.51;87.13
21520;BME280;10921;53.614;9.882;2023-01-30T11:39:51;100354.16;;;6.53;86.21
21520;BME280;10921;53.614;9.882;2023-01-30T11:42:19;100368.81;;;6.57;86.70
21520;BME280;10921;53.614;9.882;2023-01-30T11:44:45;100350.25;;;6.57;87.24
21520;BME280;10921;53.614;9.882;2023-01-30T11:47:25;100326.69;;;6.54;87.59
21520;BME280;10921;53.614;9.882;2023-01-30T11:49:53;100345.75;;;6.90;87.32
21520;BME280;10921;53.614;9.882;2023-01-30T11:52:43;100338.75;;;6.89;86.34
21520;BME280;10921;53.614;9.882;2023-01-30T11:55:17;100329.69;;;6.91;86.58
21520;BME280;10921;53.614;9.882;2023-01-30T11:57:47;100318.44;;;6.99;86.60
21520;BME280;10921;53.614;9.882;2023-01-30T12:00:18;100326.06;;;7.13;87.03
21520;BME280;10921;53.614;9.882;2023-01-30T12:02:46;100308.41;;;7.33;86.96
21520;BME280;10921;53.614;9.882;2023-01-30T12:05:24;100286.63;;;7.29;87.07
21520;BME280;10921;53.614;9.882;2023-01-30T12:07:51;100304.69;;;7.45;86.60
21520;BME280;10921;53.614;9.882;2023-01-30T12:10:29;100299.41;;;7.64;87.19
21520;BME280;10921;53.614;9.882;2023-01-30T12:12:59;100290.50;;;7.75;86.85
21520;BME280;10921;53.614;9.882;2023-01-30T12:15:32;100295.13;;;7.83;86.22
21520;BME280;10921;53.614;9.882;2023-01-30T12:18:12;100320.03;;;7.91;85.48
21520;BME280;10921;53.614;9.882;2023-01-30T12:23:39;100328.09;;;7.80;82.89
21520;BME280;10921;53.614;9.882;2023-01-30T12:26:19;100332.13;;;7.65;82.63
21520;BME280;10921;53.614;9.882;2023-01-30T12:28:52;100339.22;;;7.55;81.80
21520;BME280;10921;53.614;9.882;2023-01-30T12:31:26;100343.41;;;7.48;83.10
21520;BME280;10921;53.614;9.882;2023-01-30T12:33:56;100347.28;;;7.44;84.28
21520;BME280;10921;53.614;9.882;2023-01-30T12:58:56;100367.59;;;7.54;84.30
21520;BME280;10921;53.614;9.882;2023-01-30T13:01:50;100363.13;;;7.55;84.74
21520;BME280;10921;53.614;9.882;2023-01-30T13:04:38;100358.66;;;7.55;84.83
21520;BME280;10921;53.614;9.882;2023-01-30T13:10:32;100361.19;;;7.66;84.61
21520;BME280;10921;53.614;9.882;2023-01-30T13:15:55;100356.06;;;7.74;82.92
21520;BME280;10921;53.614;9.882;2023-01-30T13:18:45;100362.63;;;7.80;81.93
21520;BME280;10921;53.614;9.882;2023-01-30T13:21:18;100392.44;;;7.84;80.39
21520;BME280;10921;53.614;9.882;2023-01-30T13:23:56;100351.47;;;7.86;79.66
21520;BME280;10921;53.614;9.882;2023-01-30T13:26:27;100362.28;;;8.04;79.58
21520;BME280;10921;53.614;9.882;2023-01-30T13:29:00;100340.47;;;7.91;78.24
21520;BME280;10921;53.614;9.882;2023-01-30T13:31:31;100369.16;;;8.06;77.89
21520;BME280;10921;53.614;9.882;2023-01-30T13:34:08;100363.84;;;8.06;78.08
21520;BME280;10921;53.614;9.882;2023-01-30T13:36:38;100358.66;;;8.05;79.10
21520;BME280;10921;53.614;9.882;2023-01-30T13:39:15;100384.38;;;8.04;79.86
21520;BME280;10921;53.614;9.882;2023-01-30T13:41:49;100327.31;;;7.89;79.96
21520;BME280;10921;53.614;9.882;2023-01-30T13:44:25;100396.38;;;7.89;80.29
21520;BME280;10921;53.614;9.882;2023-01-30T13:46:53;100372.91;;;7.94;79.38
21520;BME280;10921;53.614;9.882;2023-01-30T13:49:38;100379.59;;;7.98;79.26
21520;BME280;10921;53.614;9.882;2023-01-30T13:52:08;100362.44;;;8.02;78.18
21520;BME280;10921;53.614;9.882;2023-01-30T13:57:22;100443.00;;;8.12;77.38
21520;BME280;10921;53.614;9.882;2023-01-30T14:00:15;100425.94;;;8.05;77.47
21520;BME280;10921;53.614;9.882;2023-01-30T14:08:21;100464.59;;;8.29;76.59
21520;BME280;10921;53.614;9.882;2023-01-30T14:10:48;100454.56;;;8.32;76.89
21520;BME280;10921;53.614;9.882;2023-01-30T14:13:15;100466.88;;;8.33;77.17
21520;BME280;10921;53.614;9.882;2023-01-30T14:16:00;100459.22;;;8.40;76.70
21520;BME280;10921;53.614;9.882;2023-01-30T14:18:31;100465.63;;;8.37;77.24
21520;BME280;10921;53.614;9.882;2023-01-30T14:21:19;100479.06;;;8.45;77.50
21520;BME280;10921;53.614;9.882;2023-01-30T14:24:18;100489.88;;;8.54;77.10
21520;BME280;10921;53.614;9.882;2023-01-30T14:34:42;100526.84;;;8.66;76.34
21520;BME280;10921;53.614;9.882;2023-01-30T14:37:29;100523.22;;;8.77;76.00
21520;BME280;10921;53.614;9.882;2023-01-30T14:40:27;100540.59;;;8.81;75.80
21520;BME280;10921;53.614;9.882;2023-01-30T14:51:31;100596.94;;;8.96;73.56
21520;BME280;10921;53.614;9.882;2023-01-30T15:04:31;100594.41;;;8.94;70.65
21520;BME280;10921;53.614;9.882;2023-01-30T15:07:03;100620.03;;;9.05;70.28
21520;BME280;10921;53.614;9.882;2023-01-30T15:09:31;100614.44;;;9.08;70.15
21520;BME280;10921;53.614;9.882;2023-01-30T15:20:20;100680.16;;;9.07;68.98